sensor_id;sensor_type;location;lat;lon;timestamp;pressure;altitude;pressure_sealevel;temperature;humidity
49461;BME280;35355;49.198;-0.368;2024-03-06T00:00:14;101267.94;;;7.53;75.10
49461;BME280;35355;49.198;-0.368;2024-03-06T00:02:40;101275.03;;;7.54;75.28
49461;BME280;35355;49.198;-0.368;2024-03-06T00:05:05;101278.34;;;7.57;75.37
49461;BME280;35355;49.198;-0.368;2024-03-06T00:07:32;101269.94;;;7.58;75.25
49461;BME280;35355;49.198;-0.368;2024-03-06T00:09:58;101272.91;;;7.57;74.98
49461;BME280;35355;49.198;-0.368;2024-03-06T00:12:23;101267.94;;;7.53;75.02
49461;BME280;35355;49.198;-0.368;2024-03-06T00:14:48;101259.63;;;7.48;75.41
49461;BME280;35355;49.198;-0.368;2024-03-06T00:17:14;101263.19;;;7.49;75.33
49461;BME280;35355;49.198;-0.368;2024-03-06T00:19:39;101263.41;;;7.47;75.62
49461;BME280;35355;49.198;-0.368;2024-03-06T00:22:05;101268.00;;;7.47;75.64
49461;BME280;35355;49.198;-0.368;2024-03-06T00:24:31;101275.91;;;7.48;75.56
49461;BME280;35355;49.198;-0.368;2024-03-06T00:26:57;101275.91;;;7.48;75.64
49461;BME280;35355;49.198;-0.368;2024-03-06T00:29:23;101280.31;;;7.49;75.63
49461;BME280;35355;49.198;-0.368;2024-03-06T00:31:48;101286.78;;;7.48;75.61
49461;BME280;35355;49.198;-0.368;2024-03-06T00:34:13;101285.97;;;7.48;75.76
49461;BME280;35355;49.198;-0.368;2024-03-06T00:36:45;101294.34;;;7.46;75.04
49461;BME280;35355;49.198;-0.368;2024-03-06T00:39:11;101292.84;;;7.50;75.70
49461;BME280;35355;49.198;-0.368;2024-03-06T00:41:39;101298.25;;;7.50;75.71
49461;BME280;35355;49.198;-0.368;2024-03-06T00:44:05;101293.06;;;7.49;75.60
49461;BME280;35355;49.198;-0.368;2024-03-06T00:46:30;101299.72;;;7.53;75.39
49461;BME280;35355;49.198;-0.368;2024-03-06T00:48:56;101300.53;;;7.53;75.66
49461;BME280;35355;49.198;-0.368;2024-03-06T00:51:21;101304.91;;;7.54;75.61
49461;BME280;35355;49.198;-0.368;2024-03-06T00:53:47;101310.94;;;7.57;75.29
49461;BME280;35355;49.198;-0.368;2024-03-06T00:56:12;101303.38;;;7.59;75.65
49461;BME280;35355;49.198;-0.368;2024-03-06T00:58:37;101299.59;;;7.60;75.90
49461;BME280;35355;49.198;-0.368;2024-03-06T01:01:03;101306.25;;;7.64;75.78
49461;BME280;35355;49.198;-0.368;2024-03-06T01:03:29;101305.44;;;7.63;75.77
49461;BME280;35355;49.198;-0.368;2024-03-06T01:05:54;101291.16;;;7.68;76.19
49461;BME280;35355;49.198;-0.368;2024-03-06T01:08:22;101299.44;;;7.73;75.87
49461;BME280;35355;49.198;-0.368;2024-03-06T01:10:50;101303.94;;;7.79;76.03
49461;BME280;35355;49.198;-0.368;2024-03-06T01:13:15;101299.94;;;7.82;75.82
49461;BME280;35355;49.198;-0.368;2024-03-06T01:15:41;101300.94;;;7.87;75.95
49461;BME280;35355;49.198;-0.368;2024-03-06T01:18:06;101299.03;;;7.88;76.10
49461;BME280;35355;49.198;-0.368;2024-03-06T01:20:31;101295.84;;;7.91;75.89
49461;BME280;35355;49.198;-0.368;2024-03-06T01:22:57;101287.47;;;7.93;76.34
49461;BME280;35355;49.198;-0.368;2024-03-06T01:25:22;101287.22;;;7.94;76.01
49461;BME280;35355;49.198;-0.368;2024-03-06T01:27:48;101289.50;;;7.97;75.96
49461;BME280;35355;49.198;-0.368;2024-03-06T01:30:14;101292.00;;;7.99;75.97
49461;BME280;35355;49.198;-0.368;2024-03-06T01:32:39;101286.56;;;7.99;76.02
49461;BME280;35355;49.198;-0.368;2024-03-06T01:35:05;101294.50;;;8.00;75.95
49461;BME280;35355;49.198;-0.368;2024-03-06T01:37:31;101281.94;;;7.99;75.90
49461;BME280;35355;49.198;-0.368;2024-03-06T01:39:57;101286.56;;;7.99;75.85
49461;BME280;35355;49.198;-0.368;2024-03-06T01:42:22;101280.03;;;8.00;75.96
49461;BME280;35355;49.198;-0.368;2024-03-06T01:44:47;101292.13;;;8.04;75.84
49461;BME280;35355;49.198;-0.368;2024-03-06T01:47:13;101290.22;;;8.04;76.12
49461;BME280;35355;49.198;-0.368;2024-03-06T01:49:39;101292.13;;;8.04;75.90
49461;BME280;35355;49.198;-0.368;2024-03-06T01:52:04;101295.88;;;8.03;75.85
49461;BME280;35355;49.198;-0.368;2024-03-06T01:54:31;101289.88;;;8.01;75.91
49461;BME280;35355;49.198;-0.368;2024-03-06T01:56:57;101296.34;;;8.00;75.65
49461;BME280;35355;49.198;-0.368;2024-03-06T01:59:25;101300.38;;;7.97;75.51
49461;BME280;35355;49.198;-0.368;2024-03-06T02:01:54;101298.72;;;7.96;75.59
49461;BME280;35355;49.198;-0.368;2024-03-06T02:04:20;101296.00;;;7.96;75.91
49461;BME280;35355;49.198;-0.368;2024-03-06T02:06:46;101295.53;;;7.99;75.96
49461;BME280;35355;49.198;-0.368;2024-03-06T02:09:12;101298.25;;;7.99;75.72
49461;BME280;35355;49.198;-0.368;2024-03-06T02:11:39;101294.72;;;7.99;75.79
49461;BME280;35355;49.198;-0.368;2024-03-06T02:14:05;101292.81;;;7.99;76.00
49461;BME280;35355;49.198;-0.368;2024-03-06T02:16:35;101298.03;;;8.01;75.71
49461;BME280;35355;49.198;-0.368;2024-03-06T02:19:00;101295.78;;;7.98;75.45
49461;BME280;35355;49.198;-0.368;2024-03-06T02:21:25;101301.22;;;7.98;75.99
49461;BME280;35355;49.198;-0.368;2024-03-06T02:23:51;101304.97;;;7.97;75.32
49461;BME280;35355;49.198;-0.368;2024-03-06T02:26:21;101300.59;;;7.96;75.89
49461;BME280;35355;49.198;-0.368;2024-03-06T02:28:47;101298.72;;;7.96;75.67
49461;BME280;35355;49.198;-0.368;2024-03-06T02:31:13;101290.81;;;7.95;75.38
49461;BME280;35355;49.198;-0.368;2024-03-06T02:33:39;101291.25;;;7.92;75.44
49461;BME280;35355;49.198;-0.368;2024-03-06T02:36:05;101296.31;;;7.88;75.75
49461;BME280;35355;49.198;-0.368;2024-03-06T02:38:30;101297.00;;;7.83;75.52
49461;BME280;35355;49.198;-0.368;2024-03-06T02:40:56;101293.09;;;7.79;75.41
49461;BME280;35355;49.198;-0.368;2024-03-06T02:43:21;101296.50;;;7.75;75.55
49461;BME280;35355;49.198;-0.368;2024-03-06T02:45:46;101295.75;;;7.67;75.27
49461;BME280;35355;49.198;-0.368;2024-03-06T02:48:12;101305.78;;;7.67;75.42
49461;BME280;35355;49.198;-0.368;2024-03-06T02:50:37;101297.47;;;7.62;75.21
49461;BME280;35355;49.198;-0.368;2024-03-06T02:53:02;101300.00;;;7.63;75.61
49461;BME280;35355;49.198;-0.368;2024-03-06T02:55:28;101298.34;;;7.62;75.10
49461;BME280;35355;49.198;-0.368;2024-03-06T02:57:53;101291.84;;;7.63;75.46
49461;BME280;35355;49.198;-0.368;2024-03-06T03:00:18;101295.38;;;7.64;75.69
49461;BME280;35355;49.198;-0.368;2024-03-06T03:02:44;101293.72;;;7.63;75.74
49461;BME280;35355;49.198;-0.368;2024-03-06T03:05:09;101291.38;;;7.66;75.68
49461;BME280;35355;49.198;-0.368;2024-03-06T03:07:35;101291.16;;;7.68;75.58
49461;BME280;35355;49.198;-0.368;2024-03-06T03:10:01;101289.50;;;7.67;75.57
49461;BME280;35355;49.198;-0.368;2024-03-06T03:12:26;101288.44;;;7.68;75.65
49461;BME280;35355;49.198;-0.368;2024-03-06T03:14:51;101280.53;;;7.66;75.42
49461;BME280;35355;49.198;-0.368;2024-03-06T03:17:18;101289.03;;;7.70;75.36
49461;BME280;35355;49.198;-0.368;2024-03-06T03:19:44;101286.53;;;7.68;75.76
49461;BME280;35355;49.198;-0.368;2024-03-06T03:22:10;101287.34;;;7.69;75.67
49461;BME280;35355;49.198;-0.368;2024-03-06T03:24:35;101294.91;;;7.67;75.77
49461;BME280;35355;49.198;-0.368;2024-03-06T03:27:02;101283.69;;;7.63;75.21
49461;BME280;35355;49.198;-0.368;2024-03-06T03:29:27;101291.22;;;7.61;75.25
49461;BME280;35355;49.198;-0.368;2024-03-06T03:31:53;101291.91;;;7.57;75.56
49461;BME280;35355;49.198;-0.368;2024-03-06T03:34:18;101286.94;;;7.53;75.28
49461;BME280;35355;49.198;-0.368;2024-03-06T03:36:44;101284.91;;;7.49;75.24
49461;BME280;35355;49.198;-0.368;2024-03-06T03:39:10;101289.38;;;7.43;75.56
49461;BME280;35355;49.198;-0.368;2024-03-06T03:41:47;101286.25;;;7.40;74.82
49461;BME280;35355;49.198;-0.368;2024-03-06T03:44:14;101282.81;;;7.32;74.98
49461;BME280;35355;49.198;-0.368;2024-03-06T03:46:40;101280.38;;;7.24;74.66
49461;BME280;35355;49.198;-0.368;2024-03-06T03:49:06;101279.25;;;7.13;74.58
49461;BME280;35355;49.198;-0.368;2024-03-06T03:51:31;101281.44;;;7.05;74.78
49461;BME280;35355;49.198;-0.368;2024-03-06T03:53:56;101283.00;;;6.94;74.10
49461;BME280;35355;49.198;-0.368;2024-03-06T03:56:22;101277.88;;;6.85;74.42
49461;BME280;35355;49.198;-0.368;2024-03-06T03:58:47;101281.72;;;6.78;74.24
49461;BME280;35355;49.198;-0.368;2024-03-06T04:01:13;101273.84;;;6.70;74.26
49461;BME280;35355;49.198;-0.368;2024-03-06T04:03:40;101282.25;;;6.61;74.78
49461;BME280;35355;49.198;-0.368;2024-03-06T04:06:07;101278.56;;;6.56;74.40
49461;BME280;35355;49.198;-0.368;2024-03-06T04:08:33;101286.53;;;6.50;74.40
49461;BME280;35355;49.198;-0.368;2024-03-06T04:10:58;101285.69;;;6.50;74.56
49461;BME280;35355;49.198;-0.368;2024-03-06T04:13:23;101287.41;;;6.44;74.54
49461;BME280;35355;49.198;-0.368;2024-03-06T04:15:48;101287.66;;;6.36;74.53
49461;BME280;35355;49.198;-0.368;2024-03-06T04:18:14;101287.88;;;6.35;74.46
49461;BME280;35355;49.198;-0.368;2024-03-06T04:20:39;101288.72;;;6.35;75.11
49461;BME280;35355;49.198;-0.368;2024-03-06T04:23:05;101297.47;;;6.37;74.81
49461;BME280;35355;49.198;-0.368;2024-03-06T04:25:30;101302.06;;;6.37;75.13
49461;BME280;35355;49.198;-0.368;2024-03-06T04:27:55;101294.75;;;6.37;74.99
49461;BME280;35355;49.198;-0.368;2024-03-06T04:30:21;101291.22;;;6.37;75.02
49461;BME280;35355;49.198;-0.368;2024-03-06T04:32:46;101289.13;;;6.39;75.50
49461;BME280;35355;49.198;-0.368;2024-03-06T04:35:12;101293.28;;;6.41;74.89
49461;BME280;35355;49.198;-0.368;2024-03-06T04:37:37;101299.06;;;6.45;75.45
49461;BME280;35355;49.198;-0.368;2024-03-06T04:40:03;101296.59;;;6.43;75.55
49461;BME280;35355;49.198;-0.368;2024-03-06T04:42:35;101293.66;;;6.45;74.96
49461;BME280;35355;49.198;-0.368;2024-03-06T04:45:02;101298.69;;;6.41;75.28
49461;BME280;35355;49.198;-0.368;2024-03-06T04:47:28;101299.13;;;6.38;74.77
49461;BME280;35355;49.198;-0.368;2024-03-06T04:49:53;101304.59;;;6.31;74.13
49461;BME280;35355;49.198;-0.368;2024-03-06T04:52:19;101305.47;;;6.25;74.56
49461;BME280;35355;49.198;-0.368;2024-03-06T04:54:44;101308.84;;;6.21;74.80
49461;BME280;35355;49.198;-0.368;2024-03-06T04:57:10;101305.94;;;6.15;74.07
49461;BME280;35355;49.198;-0.368;2024-03-06T04:59:35;101306.81;;;6.09;74.73
49461;BME280;35355;49.198;-0.368;2024-03-06T05:02:01;101307.25;;;6.06;74.88
49461;BME280;35355;49.198;-0.368;2024-03-06T05:04:28;101306.47;;;5.99;74.67
49461;BME280;35355;49.198;-0.368;2024-03-06T05:06:53;101311.06;;;5.99;73.91
49461;BME280;35355;49.198;-0.368;2024-03-06T05:09:19;101311.69;;;5.94;74.74
49461;BME280;35355;49.198;-0.368;2024-03-06T05:11:44;101316.47;;;5.92;74.69
49461;BME280;35355;49.198;-0.368;2024-03-06T05:14:09;101307.16;;;5.88;74.41
49461;BME280;35355;49.198;-0.368;2024-03-06T05:16:35;101308.19;;;5.87;74.95
49461;BME280;35355;49.198;-0.368;2024-03-06T05:19:00;101311.50;;;5.89;74.93
49461;BME280;35355;49.198;-0.368;2024-03-06T05:21:26;101315.28;;;5.88;74.69
49461;BME280;35355;49.198;-0.368;2024-03-06T05:23:51;101313.59;;;5.87;74.48
49461;BME280;35355;49.198;-0.368;2024-03-06T05:26:17;101314.03;;;5.84;74.86
49461;BME280;35355;49.198;-0.368;2024-03-06T05:28:43;101318.41;;;5.85;74.67
49461;BME280;35355;49.198;-0.368;2024-03-06T05:31:18;101324.44;;;5.80;74.60
49461;BME280;35355;49.198;-0.368;2024-03-06T05:33:44;101330.31;;;5.77;75.01
49461;BME280;35355;49.198;-0.368;2024-03-06T05:36:11;101336.16;;;5.74;74.85
49461;BME280;35355;49.198;-0.368;2024-03-06T05:38:38;101334.91;;;5.70;74.46
49461;BME280;35355;49.198;-0.368;2024-03-06T05:41:03;101338.28;;;5.65;74.73
49461;BME280;35355;49.198;-0.368;2024-03-06T05:43:29;101348.28;;;5.65;75.17
49461;BME280;35355;49.198;-0.368;2024-03-06T05:45:54;101336.44;;;5.59;74.75
49461;BME280;35355;49.198;-0.368;2024-03-06T05:48:20;101345.38;;;5.59;74.20
49461;BME280;35355;49.198;-0.368;2024-03-06T05:50:45;101349.16;;;5.58;74.67
49461;BME280;35355;49.198;-0.368;2024-03-06T05:53:10;101345.78;;;5.56;74.40
49461;BME280;35355;49.198;-0.368;2024-03-06T05:55:37;101346.44;;;5.52;74.54
49461;BME280;35355;49.198;-0.368;2024-03-06T05:58:02;101348.75;;;5.48;74.13
49461;BME280;35355;49.198;-0.368;2024-03-06T06:00:27;101352.09;;;5.43;74.48
49461;BME280;35355;49.198;-0.368;2024-03-06T06:02:53;101361.25;;;5.42;74.87
49461;BME280;35355;49.198;-0.368;2024-03-06T06:05:18;101363.38;;;5.40;74.34
49461;BME280;35355;49.198;-0.368;2024-03-06T06:07:48;101352.75;;;5.39;74.25
49461;BME280;35355;49.198;-0.368;2024-03-06T06:10:13;101358.34;;;5.37;74.68
49461;BME280;35355;49.198;-0.368;2024-03-06T06:12:39;101363.38;;;5.34;75.17
49461;BME280;35355;49.198;-0.368;2024-03-06T06:15:05;101368.34;;;5.37;75.32
49461;BME280;35355;49.198;-0.368;2024-03-06T06:17:32;101370.44;;;5.35;74.16
49461;BME280;35355;49.198;-0.368;2024-03-06T06:19:58;101373.16;;;5.35;74.93
49461;BME280;35355;49.198;-0.368;2024-03-06T06:22:23;101371.69;;;5.32;74.58
49461;BME280;35355;49.198;-0.368;2024-03-06T06:24:48;101377.53;;;5.29;74.56
49461;BME280;35355;49.198;-0.368;2024-03-06T06:27:14;101376.72;;;5.29;74.88
49461;BME280;35355;49.198;-0.368;2024-03-06T06:29:40;101381.28;;;5.28;74.42
49461;BME280;35355;49.198;-0.368;2024-03-06T06:32:06;101383.97;;;5.28;74.89
49461;BME280;35355;49.198;-0.368;2024-03-06T06:34:32;101389.41;;;5.28;74.80
49461;BME280;35355;49.198;-0.368;2024-03-06T06:36:57;101391.50;;;5.26;74.76
49461;BME280;35355;49.198;-0.368;2024-03-06T06:39:22;101393.97;;;5.27;75.05
49461;BME280;35355;49.198;-0.368;2024-03-06T06:41:48;101399.59;;;5.26;74.99
49461;BME280;35355;49.198;-0.368;2024-03-06T06:44:13;101402.09;;;5.27;75.36
49461;BME280;35355;49.198;-0.368;2024-03-06T06:46:39;101403.78;;;5.29;75.42
49461;BME280;35355;49.198;-0.368;2024-03-06T06:49:04;101399.19;;;5.29;74.88
49461;BME280;35355;49.198;-0.368;2024-03-06T06:51:30;101402.50;;;5.31;74.81
49461;BME280;35355;49.198;-0.368;2024-03-06T06:53:55;101400.88;;;5.30;75.16
49461;BME280;35355;49.198;-0.368;2024-03-06T06:56:20;101394.59;;;5.30;75.03
49461;BME280;35355;49.198;-0.368;2024-03-06T06:58:49;101403.34;;;5.32;75.03
49461;BME280;35355;49.198;-0.368;2024-03-06T07:01:14;101397.09;;;5.31;75.17
49461;BME280;35355;49.198;-0.368;2024-03-06T07:03:42;101398.75;;;5.32;74.89
49461;BME280;35355;49.198;-0.368;2024-03-06T07:06:07;101398.75;;;5.32;75.15
49461;BME280;35355;49.198;-0.368;2024-03-06T07:08:33;101410.19;;;5.34;74.94
49461;BME280;35355;49.198;-0.368;2024-03-06T07:10:58;101400.44;;;5.33;74.76
49461;BME280;35355;49.198;-0.368;2024-03-06T07:13:23;101405.44;;;5.36;75.10
49461;BME280;35355;49.198;-0.368;2024-03-06T07:15:49;101410.63;;;5.38;74.83
49461;BME280;35355;49.198;-0.368;2024-03-06T07:18:14;101399.81;;;5.38;74.94
49461;BME280;35355;49.198;-0.368;2024-03-06T07:20:40;101401.88;;;5.42;75.38
49461;BME280;35355;49.198;-0.368;2024-03-06T07:23:06;101409.56;;;5.52;75.85
49461;BME280;35355;49.198;-0.368;2024-03-06T07:25:31;101403.31;;;5.58;75.55
49461;BME280;35355;49.198;-0.368;2024-03-06T07:27:57;101401.19;;;5.67;75.51
49461;BME280;35355;49.198;-0.368;2024-03-06T07:30:22;101405.97;;;5.72;75.45
49461;BME280;35355;49.198;-0.368;2024-03-06T07:32:48;101411.13;;;5.80;75.72
49461;BME280;35355;49.198;-0.368;2024-03-06T07:35:13;101414.06;;;5.85;75.67
49461;BME280;35355;49.198;-0.368;2024-03-06T07:37:38;101411.94;;;5.94;75.19
49461;BME280;35355;49.198;-0.368;2024-03-06T07:40:06;101417.34;;;6.01;76.03
49461;BME280;35355;49.198;-0.368;2024-03-06T07:42:31;101422.75;;;6.07;76.05
49461;BME280;35355;49.198;-0.368;2024-03-06T07:44:58;101418.75;;;6.17;76.57
49461;BME280;35355;49.198;-0.368;2024-03-06T07:47:23;101415.81;;;6.25;76.41
49461;BME280;35355;49.198;-0.368;2024-03-06T07:49:49;101417.81;;;6.36;76.10
49461;BME280;35355;49.198;-0.368;2024-03-06T07:52:15;101416.09;;;6.48;76.21
49461;BME280;35355;49.198;-0.368;2024-03-06T07:54:41;101430.00;;;6.59;76.01
49461;BME280;35355;49.198;-0.368;2024-03-06T07:57:06;101432.22;;;6.68;76.00
49461;BME280;35355;49.198;-0.368;2024-03-06T07:59:32;101425.72;;;6.76;76.01
49461;BME280;35355;49.198;-0.368;2024-03-06T08:01:57;101432.53;;;6.85;76.16
49461;BME280;35355;49.198;-0.368;2024-03-06T08:04:22;101427.06;;;6.92;76.39
49461;BME280;35355;49.198;-0.368;2024-03-06T08:06:48;101434.72;;;7.02;76.38
49461;BME280;35355;49.198;-0.368;2024-03-06T08:09:14;101438.22;;;7.09;75.94
49461;BME280;35355;49.198;-0.368;2024-03-06T08:11:41;101429.16;;;7.15;76.26
49461;BME280;35355;49.198;-0.368;2024-03-06T08:14:07;101428.69;;;7.25;76.30
49461;BME280;35355;49.198;-0.368;2024-03-06T08:16:32;101433.59;;;7.35;76.45
49461;BME280;35355;49.198;-0.368;2024-03-06T08:18:59;101437.69;;;7.44;75.98
49461;BME280;35355;49.198;-0.368;2024-03-06T08:21:25;101442.00;;;7.52;75.98
49461;BME280;35355;49.198;-0.368;2024-03-06T08:23:50;101441.09;;;7.58;76.23
49461;BME280;35355;49.198;-0.368;2024-03-06T08:26:16;101448.34;;;7.64;75.98
49461;BME280;35355;49.198;-0.368;2024-03-06T08:28:41;101452.53;;;7.67;76.05
49461;BME280;35355;49.198;-0.368;2024-03-06T08:31:06;101452.00;;;7.77;76.36
49461;BME280;35355;49.198;-0.368;2024-03-06T08:33:33;101460.69;;;7.85;75.84
49461;BME280;35355;49.198;-0.368;2024-03-06T08:35:58;101461.44;;;7.93;76.21
49461;BME280;35355;49.198;-0.368;2024-03-06T08:38:24;101472.16;;;8.06;76.18
49461;BME280;35355;49.198;-0.368;2024-03-06T08:40:50;101469.72;;;8.16;76.30
49461;BME280;35355;49.198;-0.368;2024-03-06T08:43:16;101460.22;;;8.25;76.34
49461;BME280;35355;49.198;-0.368;2024-03-06T08:45:42;101453.41;;;8.35;76.24
49461;BME280;35355;49.198;-0.368;2024-03-06T08:48:07;101461.88;;;8.45;75.87
49461;BME280;35355;49.198;-0.368;2024-03-06T08:50:33;101459.06;;;8.52;76.20
49461;BME280;35355;49.198;-0.368;2024-03-06T08:52:58;101469.03;;;8.58;76.31
49461;BME280;35355;49.198;-0.368;2024-03-06T08:55:23;101468.94;;;8.65;76.11
49461;BME280;35355;49.198;-0.368;2024-03-06T08:57:49;101471.34;;;8.73;75.80
49461;BME280;35355;49.198;-0.368;2024-03-06T09:00:15;101477.06;;;8.83;75.95
49461;BME280;35355;49.198;-0.368;2024-03-06T09:02:42;101474.00;;;8.91;75.96
49461;BME280;35355;49.198;-0.368;2024-03-06T09:05:09;101487.88;;;9.02;75.77
49461;BME280;35355;49.198;-0.368;2024-03-06T09:07:38;101479.16;;;9.11;75.90
49461;BME280;35355;49.198;-0.368;2024-03-06T09:10:15;101483.19;;;9.21;75.63
49461;BME280;35355;49.198;-0.368;2024-03-06T09:12:40;101488.31;;;9.29;75.92
49461;BME280;35355;49.198;-0.368;2024-03-06T09:15:06;101488.31;;;9.41;75.70
49461;BME280;35355;49.198;-0.368;2024-03-06T09:17:32;101496.50;;;9.53;75.70
49461;BME280;35355;49.198;-0.368;2024-03-06T09:19:58;101498.38;;;9.64;76.17
49461;BME280;35355;49.198;-0.368;2024-03-06T09:22:23;101505.72;;;9.75;75.44
49461;BME280;35355;49.198;-0.368;2024-03-06T09:24:49;101496.97;;;9.85;75.52
49461;BME280;35355;49.198;-0.368;2024-03-06T09:27:15;101498.59;;;9.98;75.44
49461;BME280;35355;49.198;-0.368;2024-03-06T09:29:41;101502.63;;;10.07;75.14
49461;BME280;35355;49.198;-0.368;2024-03-06T09:32:07;101508.56;;;10.16;75.08
49461;BME280;35355;49.198;-0.368;2024-03-06T09:34:33;101503.56;;;10.25;74.40
49461;BME280;35355;49.198;-0.368;2024-03-06T09:36:58;101512.22;;;10.33;74.44
49461;BME280;35355;49.198;-0.368;2024-03-06T09:39:24;101505.91;;;10.45;74.56
49461;BME280;35355;49.198;-0.368;2024-03-06T09:41:50;101510.50;;;10.56;74.73
49461;BME280;35355;49.198;-0.368;2024-03-06T09:44:16;101510.09;;;10.64;74.51
49461;BME280;35355;49.198;-0.368;2024-03-06T09:46:47;101513.44;;;10.66;73.82
49461;BME280;35355;49.198;-0.368;2024-03-06T09:49:17;101503.09;;;10.68;74.10
49461;BME280;35355;49.198;-0.368;2024-03-06T09:51:47;101510.53;;;10.73;73.92
49461;BME280;35355;49.198;-0.368;2024-03-06T09:54:16;101510.28;;;10.75;73.63
49461;BME280;35355;49.198;-0.368;2024-03-06T09:56:43;101516.69;;;10.80;73.75
49461;BME280;35355;49.198;-0.368;2024-03-06T09:59:09;101515.88;;;10.80;73.72
49461;BME280;35355;49.198;-0.368;2024-03-06T10:01:55;101513.72;;;10.82;73.63
49461;BME280;35355;49.198;-0.368;2024-03-06T10:04:25;101523.69;;;10.88;73.88
49461;BME280;35355;49.198;-0.368;2024-03-06T10:06:58;101531.56;;;11.01;73.80
49461;BME280;35355;49.198;-0.368;2024-03-06T10:09:25;101534.81;;;11.15;73.64
49461;BME280;35355;49.198;-0.368;2024-03-06T10:11:51;101531.50;;;11.30;73.37
49461;BME280;35355;49.198;-0.368;2024-03-06T10:14:21;101534.53;;;11.46;73.54
49461;BME280;35355;49.198;-0.368;2024-03-06T10:16:59;101539.06;;;11.57;73.10
49461;BME280;35355;49.198;-0.368;2024-03-06T10:19:27;101532.84;;;11.62;72.19
49461;BME280;35355;49.198;-0.368;2024-03-06T10:21:54;101530.72;;;11.64;71.80
49461;BME280;35355;49.198;-0.368;2024-03-06T10:24:24;101532.69;;;11.68;72.25
49461;BME280;35355;49.198;-0.368;2024-03-06T10:26:59;101533.91;;;11.77;72.52
49461;BME280;35355;49.198;-0.368;2024-03-06T10:29:28;101532.16;;;11.88;71.88
49461;BME280;35355;49.198;-0.368;2024-03-06T10:31:56;101531.84;;;12.02;71.65
49461;BME280;35355;49.198;-0.368;2024-03-06T10:34:23;101539.94;;;12.14;71.44
49461;BME280;35355;49.198;-0.368;2024-03-06T10:37:01;101533.47;;;12.20;71.58
49461;BME280;35355;49.198;-0.368;2024-03-06T10:39:30;101533.47;;;12.20;70.66
49461;BME280;35355;49.198;-0.368;2024-03-06T10:41:56;101542.75;;;12.19;70.26
49461;BME280;35355;49.198;-0.368;2024-03-06T10:44:23;101542.75;;;12.19;70.38
49461;BME280;35355;49.198;-0.368;2024-03-06T10:47:05;101536.19;;;12.20;70.90
49461;BME280;35355;49.198;-0.368;2024-03-06T10:49:31;101530.78;;;12.25;69.93
49461;BME280;35355;49.198;-0.368;2024-03-06T10:52:02;101538.22;;;12.29;69.80
49461;BME280;35355;49.198;-0.368;2024-03-06T10:54:31;101528.94;;;12.31;69.75
49461;BME280;35355;49.198;-0.368;2024-03-06T10:56:57;101529.59;;;12.38;69.60
49461;BME280;35355;49.198;-0.368;2024-03-06T10:59:25;101532.19;;;12.50;69.45
49461;BME280;35355;49.198;-0.368;2024-03-06T11:01:57;101531.25;;;12.61;69.33
49461;BME280;35355;49.198;-0.368;2024-03-06T11:04:25;101533.84;;;12.73;69.10
49461;BME280;35355;49.198;-0.368;2024-03-06T11:06:51;101529.00;;;12.80;68.62
49461;BME280;35355;49.198;-0.368;2024-03-06T11:09:17;101532.06;;;12.89;68.41
49461;BME280;35355;49.198;-0.368;2024-03-06T11:11:52;101533.22;;;12.93;68.96
49461;BME280;35355;49.198;-0.368;2024-03-06T11:14:18;101529.97;;;12.96;68.28
49461;BME280;35355;49.198;-0.368;2024-03-06T11:16:58;101537.66;;;12.99;68.63
49461;BME280;35355;49.198;-0.368;2024-03-06T11:19:24;101541.00;;;13.01;67.74
49461;BME280;35355;49.198;-0.368;2024-03-06T11:21:49;101530.28;;;12.99;67.34
49461;BME280;35355;49.198;-0.368;2024-03-06T11:24:16;101537.38;;;12.95;67.16
49461;BME280;35355;49.198;-0.368;2024-03-06T11:26:46;101539.19;;;12.85;66.67
49461;BME280;35355;49.198;-0.368;2024-03-06T11:29:15;101543.44;;;12.75;66.13
49461;BME280;35355;49.198;-0.368;2024-03-06T11:32:06;101544.69;;;12.62;66.49
49461;BME280;35355;49.198;-0.368;2024-03-06T11:34:35;101547.81;;;12.49;65.41
49461;BME280;35355;49.198;-0.368;2024-03-06T11:37:05;101547.34;;;12.35;65.69
49461;BME280;35355;49.198;-0.368;2024-03-06T11:39:36;101544.28;;;12.32;65.62
49461;BME280;35355;49.198;-0.368;2024-03-06T11:42:02;101541.81;;;12.30;65.49
49461;BME280;35355;49.198;-0.368;2024-03-06T11:44:28;101548.91;;;12.31;65.41
49461;BME280;35355;49.198;-0.368;2024-03-06T11:49:27;101542.38;;;12.32;65.35
49461;BME280;35355;49.198;-0.368;2024-03-06T11:51:55;101541.56;;;12.32;64.27
49461;BME280;35355;49.198;-0.368;2024-03-06T11:54:22;101536.38;;;12.35;63.82
49461;BME280;35355;49.198;-0.368;2024-03-06T11:56:54;101541.34;;;12.38;64.15
49461;BME280;35355;49.198;-0.368;2024-03-06T11:59:23;101541.69;;;12.42;64.23
49461;BME280;35355;49.198;-0.368;2024-03-06T12:01:50;101535.09;;;12.43;63.81
49461;BME280;35355;49.198;-0.368;2024-03-06T12:04:16;101540.41;;;12.50;63.90
49461;BME280;35355;49.198;-0.368;2024-03-06T12:06:41;101535.81;;;12.55;63.90
49461;BME280;35355;49.198;-0.368;2024-03-06T12:09:06;101542.72;;;12.58;63.93
49461;BME280;35355;49.198;-0.368;2024-03-06T12:11:38;101533.97;;;12.61;63.33
49461;BME280;35355;49.198;-0.368;2024-03-06T12:14:04;101532.63;;;12.63;63.60
49461;BME280;35355;49.198;-0.368;2024-03-06T12:16:30;101527.13;;;12.63;63.09
49461;BME280;35355;49.198;-0.368;2024-03-06T12:18:58;101527.41;;;12.62;62.43
49461;BME280;35355;49.198;-0.368;2024-03-06T12:21:34;101527.41;;;12.62;63.29
49461;BME280;35355;49.198;-0.368;2024-03-06T12:24:07;101522.00;;;12.67;63.33
49461;BME280;35355;49.198;-0.368;2024-03-06T12:26:33;101527.78;;;12.71;65.74
49461;BME280;35355;49.198;-0.368;2024-03-06T12:29:27;101523.78;;;12.78;64.67
49461;BME280;35355;49.198;-0.368;2024-03-06T12:31:53;101518.34;;;12.84;62.25
49461;BME280;35355;49.198;-0.368;2024-03-06T12:34:18;101527.69;;;12.88;62.02
49461;BME280;35355;49.198;-0.368;2024-03-06T12:36:44;101520.63;;;12.92;61.92
49461;BME280;35355;49.198;-0.368;2024-03-06T12:39:09;101522.25;;;12.93;61.47
49461;BME280;35355;49.198;-0.368;2024-03-06T12:41:41;101522.84;;;12.95;61.78
49461;BME280;35355;49.198;-0.368;2024-03-06T12:44:06;101528.84;;;12.92;60.75
49461;BME280;35355;49.198;-0.368;2024-03-06T12:46:35;101521.13;;;12.89;60.71